createdAt,value
2018-12-17T00:02:10.264Z,43.17
2018-12-17T00:04:38.525Z,56.80
2018-12-17T00:07:06.749Z,49.60
2018-12-17T00:09:35.009Z,53.73
2018-12-17T00:12:03.218Z,54.67
2018-12-17T00:14:31.472Z,58.87
2018-12-17T00:16:59.749Z,56.87
2018-12-17T00:19:28.051Z,53.80
2018-12-17T00:21:56.288Z,52.30
2018-12-17T00:24:24.478Z,46.60
2018-12-17T00:26:52.771Z,55.00
2018-12-17T00:29:21.025Z,64.93
2018-12-17T00:31:49.302Z,63.20
2018-12-17T00:34:17.603Z,55.67
2018-12-17T00:36:45.853Z,73.50
2018-12-17T00:39:14.130Z,61.70
2018-12-17T00:41:42.426Z,54.37
2018-12-17T00:44:10.687Z,53.50
2018-12-17T00:46:38.948Z,63.23
2018-12-17T00:49:07.264Z,59.93
2018-12-17T00:51:35.428Z,57.50
2018-12-17T00:54:03.685Z,61.73
2018-12-17T00:56:31.989Z,56.17
2018-12-17T00:59:00.224Z,60.53
2018-12-17T01:01:28.509Z,57.93
2018-12-17T01:03:56.801Z,61.33
2018-12-17T01:06:25.061Z,63.40
2018-12-17T01:08:53.345Z,68.57
2018-12-17T01:11:21.636Z,88.33
2018-12-17T01:13:49.884Z,77.43
2018-12-17T01:16:18.171Z,64.57
2018-12-17T01:18:46.475Z,65.70
2018-12-17T01:21:14.725Z,66.07
2018-12-17T01:23:43.273Z,58.60
2018-12-17T01:26:11.686Z,56.77
2018-12-17T01:28:40.237Z,80.20
2018-12-17T01:31:08.442Z,69.27
2018-12-17T01:33:36.766Z,62.00
2018-12-17T01:36:04.997Z,63.17
2018-12-17T01:38:33.257Z,63.47
2018-12-17T01:41:01.566Z,59.17
2018-12-17T01:43:29.916Z,61.03
2018-12-17T01:45:58.225Z,67.20
2018-12-17T01:48:26.477Z,79.93
2018-12-17T01:50:54.661Z,71.37
2018-12-17T01:53:22.909Z,95.00
2018-12-17T01:55:51.217Z,67.33
2018-12-17T01:58:19.490Z,65.50
2018-12-17T02:00:47.844Z,58.30
2018-12-17T02:03:16.129Z,66.30
2018-12-17T02:05:44.388Z,87.07
2018-12-17T02:08:12.677Z,68.77
2018-12-17T02:10:40.956Z,69.77
2018-12-17T02:13:09.232Z,66.93
2018-12-17T02:15:37.476Z,74.10
2018-12-17T02:18:05.703Z,75.67
2018-12-17T02:20:34.041Z,78.00
2018-12-17T02:23:02.225Z,84.40
2018-12-17T02:25:30.510Z,90.93
2018-12-17T02:27:58.768Z,90.90
2018-12-17T02:30:27.054Z,93.40
2018-12-17T02:32:55.344Z,62.70
2018-12-17T02:35:25.143Z,79.20
2018-12-17T02:37:53.619Z,81.67
2018-12-17T02:40:22.012Z,70.50
2018-12-17T02:42:50.279Z,78.77
2018-12-17T02:45:18.551Z,70.13
2018-12-17T02:47:46.845Z,74.73
2018-12-17T02:50:15.096Z,76.20
2018-12-17T02:52:43.378Z,73.77
2018-12-17T02:55:11.673Z,70.47
2018-12-17T02:57:39.931Z,65.17
2018-12-17T03:00:09.477Z,63.33
2018-12-17T03:02:37.720Z,72.87
2018-12-17T03:05:06.376Z,82.30
2018-12-17T03:07:34.636Z,66.40
2018-12-17T03:10:02.864Z,70.83
2018-12-17T03:12:31.109Z,71.53
2018-12-17T03:14:59.297Z,80.10
2018-12-17T03:17:27.586Z,69.20
2018-12-17T03:19:55.949Z,83.30
2018-12-17T03:22:24.209Z,80.77
2018-12-17T03:24:52.413Z,63.17
2018-12-17T03:27:20.660Z,60.13
2018-12-17T03:29:48.882Z,124.47
2018-12-17T03:32:17.248Z,74.37
2018-12-17T03:34:45.601Z,58.50
2018-12-17T03:37:13.872Z,54.53
2018-12-17T03:39:42.173Z,112.83
2018-12-17T03:42:10.466Z,155.13
2018-12-17T03:44:38.832Z,72.07
2018-12-17T03:47:07.201Z,142.47
2018-12-17T03:49:35.482Z,176.87
2018-12-17T03:52:03.732Z,87.47
2018-12-17T03:54:32.037Z,80.17
2018-12-17T03:57:00.397Z,114.37
2018-12-17T03:59:28.674Z,168.90
2018-12-17T04:01:56.970Z,121.43
2018-12-17T04:04:25.222Z,200.47
2018-12-17T04:06:53.503Z,70.93
2018-12-17T04:09:21.822Z,138.83
2018-12-17T04:11:50.051Z,84.03
2018-12-17T04:14:19.250Z,71.23
2018-12-17T04:16:47.540Z,49.67
2018-12-17T04:19:15.819Z,119.10
2018-12-17T04:21:44.069Z,100.20
2018-12-17T04:24:12.368Z,54.97
2018-12-17T04:26:40.621Z,88.20
2018-12-17T04:29:08.913Z,85.70
2018-12-17T04:31:37.219Z,340.73
2018-12-17T04:34:05.481Z,302.93
2018-12-17T04:36:33.741Z,177.03
2018-12-17T04:39:02.114Z,92.87
2018-12-17T04:41:30.386Z,49.97
2018-12-17T04:43:58.691Z,121.93
2018-12-17T04:46:26.959Z,67.60
2018-12-17T04:48:55.213Z,225.60
2018-12-17T04:51:23.578Z,89.77
2018-12-17T04:53:51.905Z,57.03
2018-12-17T04:56:20.176Z,78.70
2018-12-17T04:58:48.518Z,130.00
2018-12-17T05:01:16.814Z,163.33
2018-12-17T05:03:45.064Z,209.40
2018-12-17T05:06:13.349Z,88.80
2018-12-17T05:08:41.649Z,57.63
2018-12-17T05:11:09.996Z,57.90
2018-12-17T05:13:38.269Z,67.77
2018-12-17T05:16:06.575Z,99.77
2018-12-17T05:18:34.820Z,370.93
2018-12-17T05:21:03.152Z,165.53
2018-12-17T05:23:31.398Z,45.33
2018-12-17T05:25:59.628Z,96.40
2018-12-17T05:28:27.809Z,44.13
2018-12-17T05:30:56.029Z,100.93
2018-12-17T05:33:24.561Z,49.43
2018-12-17T05:35:52.862Z,138.03
2018-12-17T05:38:21.063Z,91.13
2018-12-17T05:40:49.881Z,133.27
2018-12-17T05:43:18.284Z,127.07
2018-12-17T05:45:46.497Z,186.97
2018-12-17T05:48:14.754Z,227.20
2018-12-17T05:50:43.005Z,72.10
2018-12-17T05:53:11.187Z,97.80
2018-12-17T05:55:39.435Z,58.17
2018-12-17T05:58:07.704Z,69.57
2018-12-17T06:00:35.970Z,124.10
2018-12-17T06:03:04.185Z,136.57
2018-12-17T06:05:32.349Z,41.87
2018-12-17T06:08:00.548Z,205.93
2018-12-17T06:10:28.838Z,76.87
2018-12-17T06:12:57.118Z,42.63
2018-12-17T06:15:25.387Z,77.37
2018-12-17T06:17:53.646Z,157.23
2018-12-17T06:20:21.905Z,84.60
2018-12-17T06:22:50.155Z,93.50
2018-12-17T06:25:18.366Z,154.30
2018-12-17T06:27:46.657Z,46.13
2018-12-17T06:30:14.838Z,63.03
2018-12-17T06:32:43.084Z,82.87
2018-12-17T06:35:11.391Z,96.17
2018-12-17T06:37:39.674Z,42.03
2018-12-17T06:40:10.370Z,79.13
2018-12-17T06:42:38.133Z,74.90
2018-12-17T06:45:06.453Z,50.30
2018-12-17T06:47:34.686Z,35.73
2018-12-17T06:50:02.852Z,45.63
2018-12-17T06:52:31.041Z,48.27
2018-12-17T06:54:59.300Z,45.97
2018-12-17T06:57:27.473Z,49.43
2018-12-17T06:59:55.674Z,37.73
2018-12-17T07:02:24.220Z,40.87
2018-12-17T07:04:52.401Z,52.03
2018-12-17T07:07:20.617Z,42.83
2018-12-17T07:09:48.946Z,54.23
2018-12-17T07:12:17.154Z,34.80
2018-12-17T07:14:45.426Z,52.23
2018-12-17T07:17:13.753Z,43.60
2018-12-17T07:19:41.981Z,70.43
2018-12-17T07:22:10.270Z,48.37
2018-12-17T07:24:38.502Z,38.10
2018-12-17T07:27:06.680Z,52.30
2018-12-17T07:29:34.901Z,39.30
2018-12-17T07:32:03.222Z,45.73
2018-12-17T07:34:31.436Z,43.30
2018-12-17T07:36:59.803Z,35.37
2018-12-17T07:39:28.461Z,65.80
2018-12-17T07:41:56.710Z,45.03
2018-12-17T07:44:24.956Z,78.87
2018-12-17T07:46:53.308Z,56.67
2018-12-17T07:49:21.572Z,70.57
2018-12-17T07:51:49.811Z,70.63
2018-12-17T07:54:17.989Z,59.30
2018-12-17T07:56:46.220Z,58.40
2018-12-17T07:59:14.501Z,75.50
2018-12-17T08:01:42.753Z,51.37
2018-12-17T08:04:10.933Z,90.47
2018-12-17T08:06:39.217Z,64.80
2018-12-17T08:09:07.934Z,36.07
2018-12-17T08:11:36.185Z,70.73
2018-12-17T08:14:04.369Z,98.60
2018-12-17T08:16:32.543Z,68.93
2018-12-17T08:19:00.881Z,97.33
2018-12-17T08:21:29.109Z,74.43
2018-12-17T08:23:57.332Z,47.53
2018-12-17T08:26:25.526Z,38.33
2018-12-17T08:28:53.809Z,44.67
2018-12-17T08:31:22.060Z,68.33
2018-12-17T08:33:50.260Z,115.03
2018-12-17T08:36:18.548Z,39.67
2018-12-17T08:38:46.812Z,51.47
2018-12-17T08:41:15.069Z,82.43
2018-12-17T08:43:43.367Z,74.70
2018-12-17T08:46:11.624Z,61.33
2018-12-17T08:48:39.941Z,54.20
2018-12-17T08:51:08.200Z,43.60
2018-12-17T08:53:36.361Z,50.57
2018-12-17T08:56:04.607Z,42.07
2018-12-17T08:58:32.862Z,57.73
2018-12-17T09:01:01.098Z,61.57
2018-12-17T09:03:29.342Z,36.50
2018-12-17T09:05:57.536Z,49.87
2018-12-17T09:08:25.780Z,54.47
2018-12-17T09:10:53.974Z,52.20
2018-12-17T09:13:22.274Z,47.27
2018-12-17T09:15:50.521Z,44.87
2018-12-17T09:18:18.789Z,42.00
2018-12-17T09:20:47.097Z,38.13
2018-12-17T09:23:15.388Z,41.33
2018-12-17T09:25:43.646Z,62.13
2018-12-17T09:28:11.904Z,43.73
2018-12-17T09:30:41.469Z,36.47
2018-12-17T09:33:10.123Z,38.90
2018-12-17T09:35:38.385Z,39.47
2018-12-17T09:38:06.697Z,45.63
2018-12-17T09:40:34.922Z,41.57
2018-12-17T09:43:03.243Z,43.93
2018-12-17T09:45:31.465Z,39.00
2018-12-17T09:47:59.745Z,36.87
2018-12-17T09:50:28.046Z,44.80
2018-12-17T09:52:56.334Z,42.13
2018-12-17T09:55:24.566Z,49.27
2018-12-17T09:57:52.769Z,49.83
2018-12-17T10:00:25.485Z,54.47
2018-12-17T10:02:51.350Z,57.17
2018-12-17T10:05:19.667Z,52.07
2018-12-17T10:07:48.050Z,48.30
2018-12-17T10:10:16.271Z,46.30
2018-12-17T10:12:44.470Z,53.00
2018-12-17T10:15:12.749Z,44.97
2018-12-17T10:17:40.988Z,47.03
2018-12-17T10:20:09.234Z,52.50
2018-12-17T10:22:37.461Z,50.70
2018-12-17T10:25:05.938Z,50.00
2018-12-17T10:27:34.237Z,44.60
2018-12-17T10:30:02.464Z,45.77
2018-12-17T10:32:30.694Z,47.13
2018-12-17T10:34:58.967Z,46.43
2018-12-17T10:37:27.204Z,45.17
2018-12-17T10:39:55.383Z,39.10
2018-12-17T10:42:23.669Z,38.27
2018-12-17T10:44:51.999Z,41.60
2018-12-17T10:47:20.348Z,39.20
2018-12-17T10:49:48.609Z,42.27
2018-12-17T10:52:16.865Z,44.00
2018-12-17T10:54:45.033Z,44.47
2018-12-17T10:57:13.346Z,44.60
2018-12-17T10:59:41.584Z,37.63
2018-12-17T11:02:14.130Z,42.57
2018-12-17T11:05:16.404Z,51.53
2018-12-17T11:07:44.741Z,40.83
2018-12-17T11:10:13.068Z,45.53
2018-12-17T11:12:41.257Z,42.77
2018-12-17T11:15:10.721Z,44.27
2018-12-17T11:17:39.308Z,45.83
2018-12-17T11:20:09.405Z,47.20
2018-12-17T11:22:37.703Z,43.33
2018-12-17T11:25:06.577Z,50.27
2018-12-17T11:27:34.813Z,45.30
2018-12-17T11:30:03.104Z,47.63
2018-12-17T11:32:31.478Z,50.47
2018-12-17T11:34:59.781Z,55.27
2018-12-17T11:37:28.023Z,51.10
2018-12-17T11:39:56.284Z,47.90
2018-12-17T11:42:24.462Z,49.17
2018-12-17T11:44:52.833Z,55.33
2018-12-17T11:47:21.166Z,53.07
2018-12-17T11:49:49.385Z,56.07
2018-12-17T11:52:17.600Z,53.30
2018-12-17T11:54:45.765Z,53.07
2018-12-17T11:57:43.115Z,53.80
2018-12-17T12:00:11.363Z,53.47
2018-12-17T12:02:39.666Z,49.40
2018-12-17T12:05:07.992Z,54.30
2018-12-17T12:07:36.193Z,55.47
2018-12-17T12:10:04.490Z,50.93
2018-12-17T12:12:32.769Z,58.17
2018-12-17T12:15:01.027Z,52.30
2018-12-17T12:17:29.340Z,46.07
2018-12-17T12:19:57.592Z,53.43
2018-12-17T12:22:25.853Z,46.43
2018-12-17T12:24:54.245Z,49.27
2018-12-17T12:27:22.601Z,49.10
2018-12-17T12:29:50.904Z,42.87
2018-12-17T12:32:19.174Z,48.83
2018-12-17T12:34:47.349Z,52.27
2018-12-17T12:37:15.597Z,43.53
2018-12-17T12:39:43.765Z,46.33
2018-12-17T12:42:11.988Z,45.37
2018-12-17T12:44:40.348Z,44.33
2018-12-17T12:47:08.505Z,48.30
2018-12-17T12:49:36.793Z,48.60
2018-12-17T12:52:05.052Z,46.37
2018-12-17T12:54:33.264Z,45.83
2018-12-17T12:57:01.554Z,45.57
2018-12-17T12:59:29.777Z,46.00
2018-12-17T13:01:57.949Z,44.70
2018-12-17T13:04:26.229Z,49.73
2018-12-17T13:06:54.429Z,44.87
2018-12-17T13:09:22.694Z,45.73
2018-12-17T13:11:51.004Z,46.20
2018-12-17T13:14:19.341Z,42.90
2018-12-17T13:16:47.697Z,45.27
2018-12-17T13:19:16.157Z,46.73
2018-12-17T13:21:44.352Z,46.23
2018-12-17T13:24:12.534Z,45.80
2018-12-17T13:26:40.733Z,46.03
2018-12-17T13:29:09.044Z,49.63
2018-12-17T13:31:37.319Z,44.93
2018-12-17T13:34:05.669Z,47.90
2018-12-17T13:36:33.917Z,45.93
2018-12-17T13:39:02.396Z,56.20
2018-12-17T13:41:30.590Z,44.13
2018-12-17T13:43:58.907Z,44.20
2018-12-17T13:46:27.128Z,42.27
2018-12-17T13:48:55.742Z,39.87
2018-12-17T13:51:30.340Z,40.53
2018-12-17T13:54:00.020Z,42.73
2018-12-17T13:56:28.808Z,37.97
2018-12-17T13:58:57.034Z,40.60
2018-12-17T14:01:25.300Z,37.23
2018-12-17T14:03:53.556Z,40.40
2018-12-17T14:06:21.753Z,41.03
2018-12-17T14:08:50.009Z,37.27
2018-12-17T14:11:18.598Z,35.93
2018-12-17T14:13:46.894Z,38.83
2018-12-17T14:16:16.088Z,40.37
2018-12-17T14:19:21.677Z,41.70
2018-12-17T14:21:55.321Z,37.37
2018-12-17T14:24:23.625Z,35.47
2018-12-17T14:26:51.933Z,40.80
2018-12-17T14:29:20.313Z,40.23
2018-12-17T14:31:48.517Z,38.20
2018-12-17T14:34:16.684Z,39.83
2018-12-17T14:36:44.921Z,39.87
2018-12-17T14:39:13.133Z,43.43
2018-12-17T14:41:41.306Z,38.30
2018-12-17T14:44:16.060Z,39.30
2018-12-17T14:46:49.676Z,41.97
2018-12-17T14:49:17.966Z,43.53
2018-12-17T14:51:46.400Z,39.20
2018-12-17T14:54:14.621Z,36.17
2018-12-17T14:56:43.005Z,37.37
2018-12-17T14:59:11.237Z,40.97
2018-12-17T15:01:39.498Z,38.00
2018-12-17T15:04:07.710Z,51.47
2018-12-17T15:06:36.009Z,48.07
2018-12-17T15:09:05.956Z,44.13
2018-12-17T15:11:34.212Z,42.93
2018-12-17T15:14:02.434Z,39.57
2018-12-17T15:16:30.694Z,37.17
2018-12-17T15:18:58.893Z,37.73
2018-12-17T15:21:29.130Z,34.40
2018-12-17T15:23:57.412Z,34.17
2018-12-17T15:26:25.708Z,33.80
2018-12-17T15:28:54.034Z,34.47
2018-12-17T15:31:22.304Z,32.43
2018-12-17T15:33:50.613Z,29.63
2018-12-17T15:36:18.885Z,30.13
2018-12-17T15:38:47.148Z,30.53
2018-12-17T15:41:15.438Z,31.17
2018-12-17T15:43:43.676Z,33.87
2018-12-17T15:46:11.956Z,31.60
2018-12-17T15:48:40.275Z,30.37
2018-12-17T15:51:08.550Z,30.57
2018-12-17T15:53:36.793Z,30.63
2018-12-17T15:56:04.986Z,28.33
2018-12-17T15:58:33.216Z,30.53
2018-12-17T16:01:01.409Z,28.73
2018-12-17T16:03:29.708Z,31.13
2018-12-17T16:05:58.061Z,30.43
2018-12-17T16:08:26.337Z,29.97
2018-12-17T16:10:54.635Z,32.33
2018-12-17T16:13:22.995Z,28.53
2018-12-17T16:15:51.337Z,29.73
2018-12-17T16:18:19.557Z,26.90
2018-12-17T16:20:47.826Z,28.70
2018-12-17T16:23:16.089Z,26.47
2018-12-17T16:25:44.410Z,26.80
2018-12-17T16:28:12.810Z,24.73
2018-12-17T16:30:41.033Z,29.73
2018-12-17T16:33:09.329Z,29.13
2018-12-17T16:35:37.689Z,32.40
2018-12-17T16:38:06.008Z,31.40
2018-12-17T16:40:34.443Z,31.97
2018-12-17T16:43:02.714Z,32.90
2018-12-17T16:45:30.985Z,37.33
2018-12-17T16:47:59.273Z,32.87
2018-12-17T16:50:27.537Z,40.40
2018-12-17T16:52:55.804Z,41.70
2018-12-17T16:55:24.199Z,39.97
2018-12-17T16:57:52.483Z,35.00
2018-12-17T17:00:20.741Z,35.63
2018-12-17T17:02:49.061Z,34.20
2018-12-17T17:05:17.295Z,30.73
2018-12-17T17:07:45.597Z,28.70
2018-12-17T17:10:14.083Z,24.90
2018-12-17T17:12:42.403Z,29.97
2018-12-17T17:15:11.440Z,32.43
2018-12-17T17:17:39.714Z,29.80
2018-12-17T17:20:09.573Z,32.80
2018-12-17T17:22:37.872Z,32.37
2018-12-17T17:25:06.501Z,33.43
2018-12-17T17:27:34.757Z,33.27
2018-12-17T17:30:03.058Z,34.53
2018-12-17T17:32:31.313Z,37.43
2018-12-17T17:34:59.569Z,41.23
2018-12-17T17:37:27.740Z,39.07
2018-12-17T17:39:56.039Z,35.43
2018-12-17T17:42:24.332Z,36.93
2018-12-17T17:44:52.609Z,36.43
2018-12-17T17:47:20.874Z,37.43
2018-12-17T17:49:49.165Z,37.53
2018-12-17T17:52:17.400Z,36.13
2018-12-17T17:54:45.709Z,37.40
2018-12-17T17:57:13.953Z,36.77
2018-12-17T17:59:42.225Z,38.33
2018-12-17T18:02:10.529Z,35.07
2018-12-17T18:04:38.781Z,27.97
2018-12-17T18:07:07.087Z,28.17
2018-12-17T18:09:35.465Z,32.47
2018-12-17T18:12:03.720Z,29.20
2018-12-17T18:14:31.981Z,30.03
2018-12-17T18:17:00.274Z,31.33
2018-12-17T18:19:28.533Z,30.77
2018-12-17T18:21:56.854Z,31.23
2018-12-17T18:24:25.117Z,31.37
2018-12-17T18:26:53.364Z,27.53
2018-12-17T18:29:21.633Z,26.37
2018-12-17T18:31:49.932Z,28.93
2018-12-17T18:34:18.188Z,29.10
2018-12-17T18:36:46.457Z,29.77
2018-12-17T18:39:14.659Z,29.33
2018-12-17T18:41:42.908Z,28.73
2018-12-17T18:44:11.076Z,29.07
2018-12-17T18:46:39.282Z,28.87
2018-12-17T18:49:07.524Z,31.87
2018-12-17T18:51:35.702Z,32.10
2018-12-17T18:54:04.836Z,30.50
2018-12-17T18:56:33.001Z,28.80
2018-12-17T18:59:01.294Z,35.53
2018-12-17T19:01:29.545Z,30.23
2018-12-17T19:03:57.797Z,32.43
2018-12-17T19:06:25.980Z,35.37
2018-12-17T19:08:54.286Z,26.20
2018-12-17T19:11:22.557Z,31.53
2018-12-17T19:13:50.849Z,33.07
2018-12-17T19:16:19.113Z,36.40
2018-12-17T19:18:47.345Z,37.90
2018-12-17T19:21:16.208Z,30.40
2018-12-17T19:23:44.453Z,34.60
2018-12-17T19:26:12.753Z,34.10
2018-12-17T19:28:40.982Z,33.23
2018-12-17T19:31:09.273Z,29.90
2018-12-17T19:33:37.529Z,32.77
2018-12-17T19:36:05.809Z,29.33
2018-12-17T19:38:35.302Z,32.13
2018-12-17T19:41:03.623Z,28.60
2018-12-17T19:43:31.871Z,31.20
2018-12-17T19:46:00.228Z,31.73
2018-12-17T19:48:28.669Z,30.83
2018-12-17T19:50:56.918Z,35.70
2018-12-17T19:53:25.274Z,35.20
2018-12-17T19:55:53.565Z,31.37
2018-12-17T19:58:21.835Z,37.27
2018-12-17T20:00:51.427Z,34.27
2018-12-17T20:03:19.613Z,39.27
2018-12-17T20:05:47.910Z,31.80
2018-12-17T20:08:16.216Z,40.57
2018-12-17T20:10:44.563Z,36.60
2018-12-17T20:13:14.895Z,37.87
2018-12-17T20:15:43.267Z,39.83
2018-12-17T20:18:11.513Z,34.27
2018-12-17T20:20:39.797Z,28.67
2018-12-17T20:23:08.169Z,32.47
2018-12-17T20:25:36.365Z,30.47
2018-12-17T20:28:04.545Z,35.70
2018-12-17T20:30:32.842Z,31.37
2018-12-17T20:33:01.157Z,32.23
2018-12-17T20:35:29.381Z,33.93
2018-12-17T20:37:57.651Z,36.40
2018-12-17T20:40:25.899Z,35.07
2018-12-17T20:42:54.165Z,36.53
2018-12-17T20:45:22.516Z,38.50
2018-12-17T20:47:50.841Z,33.07
2018-12-17T20:50:19.116Z,35.23
2018-12-17T20:52:47.412Z,32.60
2018-12-17T20:55:15.725Z,30.03
2018-12-17T20:57:43.893Z,31.97
2018-12-17T21:00:12.237Z,27.53
2018-12-17T21:02:40.484Z,30.63
2018-12-17T21:05:08.748Z,31.63
2018-12-17T21:07:37.066Z,29.47
2018-12-17T21:10:06.457Z,32.97
2018-12-17T21:12:34.704Z,30.57
2018-12-17T21:15:03.016Z,32.23
2018-12-17T21:17:31.245Z,28.43
2018-12-17T21:20:00.036Z,31.07
2018-12-17T21:22:28.337Z,27.90
2018-12-17T21:24:56.581Z,30.80
2018-12-17T21:27:25.069Z,32.73
2018-12-17T21:29:53.310Z,29.03
2018-12-17T21:32:21.542Z,31.23
2018-12-17T21:34:49.818Z,34.93
2018-12-17T21:37:18.127Z,32.00
2018-12-17T21:39:46.386Z,29.00
2018-12-17T21:42:14.650Z,31.73
2018-12-17T21:44:42.943Z,33.07
2018-12-17T21:47:11.296Z,34.10
2018-12-17T21:49:39.568Z,34.40
2018-12-17T21:52:07.887Z,29.13
2018-12-17T21:54:36.220Z,33.70
2018-12-17T21:57:04.388Z,30.23
2018-12-17T21:59:32.694Z,30.60
2018-12-17T22:02:00.941Z,33.40
2018-12-17T22:04:29.226Z,38.00
2018-12-17T22:06:57.521Z,34.23
2018-12-17T22:09:25.765Z,36.90
2018-12-17T22:11:54.050Z,41.67
2018-12-17T22:14:22.355Z,35.93
2018-12-17T22:16:50.602Z,37.80
2018-12-17T22:19:18.901Z,41.93
2018-12-17T22:21:47.187Z,37.70
2018-12-17T22:24:15.775Z,38.63
2018-12-17T22:26:44.005Z,37.10
2018-12-17T22:29:13.236Z,39.97
2018-12-17T22:31:41.501Z,40.60
2018-12-17T22:34:09.754Z,45.50
2018-12-17T22:36:38.048Z,39.37
2018-12-17T22:39:06.837Z,37.83
2018-12-17T22:41:35.159Z,38.30
2018-12-17T22:44:03.492Z,38.13
2018-12-17T22:46:31.770Z,33.07
2018-12-17T22:49:00.024Z,31.20
2018-12-17T22:51:28.308Z,31.13
2018-12-17T22:53:56.581Z,35.63
2018-12-17T22:56:24.848Z,34.40
2018-12-17T22:58:53.217Z,34.97
2018-12-17T23:01:21.398Z,37.43
2018-12-17T23:03:49.668Z,33.77
2018-12-17T23:06:17.907Z,33.50
2018-12-17T23:08:57.602Z,38.43
2018-12-17T23:11:41.566Z,35.77
2018-12-17T23:14:21.307Z,35.10
2018-12-17T23:17:01.050Z,33.33
2018-12-17T23:19:28.329Z,33.30
2018-12-17T23:21:56.552Z,30.97
2018-12-17T23:24:24.893Z,30.00
2018-12-17T23:26:53.108Z,29.57
2018-12-17T23:29:21.398Z,33.10
2018-12-17T23:31:53.539Z,28.10
2018-12-17T23:34:21.716Z,30.20
2018-12-17T23:36:50.017Z,31.37
2018-12-17T23:39:18.301Z,32.63
2018-12-17T23:41:46.765Z,28.97
2018-12-17T23:44:15.036Z,32.83
2018-12-17T23:46:43.332Z,30.90
2018-12-17T23:49:11.581Z,32.93
2018-12-17T23:51:39.895Z,31.77
2018-12-17T23:54:08.157Z,29.77
2018-12-17T23:56:36.412Z,30.50
2018-12-17T23:59:04.683Z,34.50
